KFSI/FSI METAR and TAF weather

Enter ICAO airport designator
Station Type Date Time Source
KFSI METAR 2021/03/05 06:56 UTC NOAA

KFSI 050656Z AUTO 14011KT 10SM CLR 13/05 A2981 RMK AO2 SLP089 T01290046


Station Type Date Time Source
KFSI Decoded METAR 2021/03/05 06:56 UTC NOAA

Fort Sill, OK, United States (KFSI) 34-36N 098-24W 360M
Mar 05, 2021 - 01:56 AM EST / 2021.03.05 0656 UTC
Wind: from the SE (140 degrees) at 13 MPH (11 KT):0
Visibility: 10 mile(s):0
Sky conditions: clear
Temperature: 55.2 F (12.9 C)
Dew Point: 40.3 F (4.6 C)
Relative Humidity: 57%
Pressure (altimeter): 29.81 in. Hg (1009 hPa)
ob: KFSI 050656Z AUTO 14011KT 10SM CLR 13/05 A2981 RMK AO2 SLP089 T01290046
cycle: 7

Station Type Date Time Source
KFSI TAF 2020/11/03 14:12 UTC NOAA

TAF KFSI 031400Z 0314/0420 19009KT 9999 SKC QNH3019INS TX19/0320Z TN04/0410Z

Example: see airport list